Time;durP1;ratioP1;P1;durP2;ratioP2;P2;SDS_P1;SDS_P2;PMS_P1;PMS_P2;Temp;Humidity;BMP_temperature;BMP_pressure;BME280_temperature;BME280_humidity;BME280_pressure;Samples;Min_cycle;Max_cycle;Signal;HPM_P1;HPM_P2
2023/11/16 00:02:43;;;;;;;2.63;0.90;;;;;;;10.75;82.11;100338.47;10209752;28;20131;-66
2023/11/16 00:07:48;;;;;;;4.22;1.02;;;;;;;10.72;82.05;100336.03;10205505;28;20077;-66
2023/11/16 00:12:50;;;;;;;3.30;0.80;;;;;;;10.72;82.17;100342.22;10214904;28;20059;-66
2023/11/16 00:17:53;;;;;;;2.45;0.70;;;;;;;10.71;82.74;100337.00;10199932;28;20062;-66
2023/11/16 00:22:54;;;;;;;1.58;0.85;;;;;;;10.65;82.12;100332.19;10199866;28;20143;-66
2023/11/16 00:27:59;;;;;;;2.60;0.63;;;;;;;10.66;82.88;100336.50;10217611;28;20117;-66
2023/11/16 00:33:00;;;;;;;3.53;1.23;;;;;;;10.66;82.45;100331.19;10207196;28;20135;-67
2023/11/16 00:38:04;;;;;;;4.57;1.10;;;;;;;10.61;82.49;100337.75;10199178;28;20059;-67
2023/11/16 00:43:05;;;;;;;2.57;1.27;;;;;;;10.58;82.61;100324.69;10205268;28;20113;-66
2023/11/16 00:48:08;;;;;;;3.72;0.73;;;;;;;10.59;82.46;100314.88;10202469;28;20055;-66
2023/11/16 00:53:10;;;;;;;4.10;1.20;;;;;;;10.53;83.11;100310.03;10203191;28;20070;-68
2023/11/16 00:58:12;;;;;;;2.67;1.10;;;;;;;10.47;82.97;100302.56;10203665;28;20062;-66
2023/11/16 01:03:15;;;;;;;3.83;1.20;;;;;;;10.45;82.16;100313.31;10204396;28;20137;-67
2023/11/16 01:08:17;;;;;;;4.10;1.17;;;;;;;10.38;81.78;100317.41;10206357;28;20753;-67
2023/11/16 01:13:28;;;;;;;3.88;1.40;;;;;;;10.36;83.09;100311.38;10208633;28;20087;-67
2023/11/16 01:18:32;;;;;;;3.15;0.82;;;;;;;10.36;82.60;100322.03;10204073;28;20145;-66
2023/11/16 01:23:36;;;;;;;4.13;1.05;;;;;;;10.34;82.51;100311.47;10200806;28;20055;-65
2023/11/16 01:28:40;;;;;;;5.38;0.90;;;;;;;10.23;82.17;100320.28;10211569;28;20054;-65
2023/11/16 01:33:45;;;;;;;2.85;0.60;;;;;;;10.12;82.54;100322.94;10192739;28;20051;-64
2023/11/16 01:38:46;;;;;;;2.90;1.45;;;;;;;10.08;82.70;100326.78;10208887;28;20066;-66
2023/11/16 01:43:48;;;;;;;3.67;2.00;;;;;;;10.05;82.81;100314.56;10199495;28;20733;-66
2023/11/16 01:48:49;;;;;;;3.08;1.15;;;;;;;10.04;83.26;100317.34;10202143;28;20079;-67
2023/11/16 01:53:58;;;;;;;4.65;1.27;;;;;;;9.92;83.77;100324.47;10206249;28;20691;-67
2023/11/16 01:59:01;;;;;;;3.35;1.45;;;;;;;9.86;84.23;100333.78;10210891;28;20174;-66
2023/11/16 02:04:04;;;;;;;4.22;1.75;;;;;;;9.79;84.86;100337.84;10211805;28;20055;-67
2023/11/16 02:09:11;;;;;;;7.35;1.40;;;;;;;9.73;85.48;100327.69;10209794;28;20043;-67
2023/11/16 02:14:13;;;;;;;5.50;1.40;;;;;;;9.70;85.73;100318.13;10200977;28;20066;-67
2023/11/16 02:19:29;;;;;;;3.10;1.17;;;;;;;9.61;86.58;100320.63;10205311;28;20058;-67
2023/11/16 02:24:31;;;;;;;2.75;1.17;;;;;;;9.61;86.83;100317.97;10210217;28;20582;-67
2023/11/16 02:29:33;;;;;;;5.25;1.30;;;;;;;9.48;86.62;100299.44;10208302;28;20047;-67
2023/11/16 02:34:35;;;;;;;5.68;1.40;;;;;;;9.55;86.89;100296.22;10208866;28;20039;-66
2023/11/16 02:39:37;;;;;;;2.40;1.23;;;;;;;9.54;87.00;100304.31;10201963;28;20065;-66
2023/11/16 02:44:42;;;;;;;2.42;1.23;;;;;;;9.49;87.43;100311.78;10210535;28;20083;-66
2023/11/16 02:49:43;;;;;;;3.70;1.40;;;;;;;9.48;87.13;100300.28;10204864;28;20112;-67
2023/11/16 02:54:47;;;;;;;5.63;2.10;;;;;;;9.47;86.94;100305.72;10210455;28;20135;-66
2023/11/16 02:59:49;;;;;;;5.03;1.70;;;;;;;9.42;87.01;100305.22;10206746;28;20559;-67
2023/11/16 03:04:51;;;;;;;2.67;1.10;;;;;;;9.47;87.35;100308.38;10202383;28;20058;-66
2023/11/16 03:09:52;;;;;;;3.83;1.13;;;;;;;9.47;86.93;100303.06;10204489;28;20055;-67
2023/11/16 03:14:53;;;;;;;4.00;1.50;;;;;;;9.50;86.70;100293.06;10205170;28;20075;-66
2023/11/16 03:19:55;;;;;;;3.22;1.27;;;;;;;9.54;86.62;100297.16;10208043;28;20446;-67
2023/11/16 03:24:56;;;;;;;4.22;1.38;;;;;;;9.55;86.70;100288.25;10206808;28;20485;-67
2023/11/16 03:29:58;;;;;;;3.67;0.70;;;;;;;9.61;87.06;100265.69;10204237;28;20056;-66
2023/11/16 03:35:00;;;;;;;7.45;1.85;;;;;;;9.62;86.26;100261.19;10206120;28;20055;-67
2023/11/16 03:40:04;;;;;;;5.13;1.42;;;;;;;9.66;86.04;100262.66;10208718;28;20095;-67
2023/11/16 03:45:07;;;;;;;5.65;1.40;;;;;;;9.70;86.24;100264.13;10209928;28;20685;-67
2023/11/16 03:50:10;;;;;;;5.80;1.48;;;;;;;9.71;86.11;100263.16;10222333;28;20058;-68
2023/11/16 03:55:13;;;;;;;4.43;1.10;;;;;;;9.75;85.91;100259.28;10208060;28;20043;-66
2023/11/16 04:00:17;;;;;;;3.58;1.13;;;;;;;9.71;85.38;100268.47;10202577;28;20047;-66
2023/11/16 04:05:19;;;;;;;3.40;1.10;;;;;;;9.69;85.73;100257.94;10207206;28;20062;-67
2023/11/16 04:10:20;;;;;;;8.20;1.65;;;;;;;9.68;85.46;100250.09;10214450;28;20058;-67
2023/11/16 04:15:22;;;;;;;4.57;1.27;;;;;;;9.73;86.48;100242.63;10204216;28;20701;-66
2023/11/16 04:20:27;;;;;;;2.70;0.93;;;;;;;9.78;85.41;100235.13;10193446;28;20138;-67
2023/11/16 04:25:29;;;;;;;3.15;1.00;;;;;;;9.68;85.58;100239.47;10209509;28;20048;-67
2023/11/16 04:30:31;;;;;;;4.03;1.42;;;;;;;9.70;84.84;100249.03;10217128;28;20054;-66
2023/11/16 04:35:33;;;;;;;5.93;1.33;;;;;;;9.72;85.02;100241.75;10199771;28;20062;-65
2023/11/16 04:40:36;;;;;;;3.60;1.08;;;;;;;9.65;84.83;100239.69;10218197;28;21200;-66
2023/11/16 04:45:38;;;;;;;3.90;1.00;;;;;;;9.70;85.16;100237.56;10200303;28;20080;-66
2023/11/16 04:50:40;;;;;;;3.53;1.75;;;;;;;9.72;85.52;100224.97;10202240;28;20128;-66
2023/11/16 04:55:41;;;;;;;4.80;1.10;;;;;;;9.80;85.53;100230.53;10203304;28;20070;-67
2023/11/16 05:00:49;;;;;;;2.53;1.33;;;;;;;9.83;85.03;100205.53;10200795;28;20627;-65
2023/11/16 05:05:50;;;;;;;5.93;1.55;;;;;;;9.78;84.85;100189.94;10197821;28;20074;-67
2023/11/16 05:10:52;;;;;;;8.20;2.15;;;;;;;9.73;85.57;100200.09;10201294;28;20113;-67
2023/11/16 05:15:53;;;;;;;2.95;1.52;;;;;;;9.75;86.26;100214.09;10214646;28;20047;-68
2023/11/16 05:20:55;;;;;;;3.92;1.73;;;;;;;9.70;86.31;100205.66;10199893;28;20054;-66
2023/11/16 05:25:57;;;;;;;7.82;1.63;;;;;;;9.65;86.80;100199.84;10200341;28;20446;-68
2023/11/16 05:30:58;;;;;;;3.55;1.48;;;;;;;9.62;87.17;100198.25;10202386;28;20079;-68
2023/11/16 05:36:00;;;;;;;5.28;1.98;;;;;;;9.57;87.52;100210.22;10202856;28;20700;-66
2023/11/16 05:41:02;;;;;;;4.97;1.33;;;;;;;9.53;88.36;100204.28;10204915;28;20060;-67
2023/11/16 05:46:04;;;;;;;4.38;1.63;;;;;;;9.57;88.39;100207.56;10198949;28;20190;-66
2023/11/16 05:51:05;;;;;;;5.50;2.30;;;;;;;9.62;88.03;100205.38;10203621;28;20059;-68
2023/11/16 05:56:09;;;;;;;6.03;1.40;;;;;;;9.51;88.42;100193.78;10202370;28;20059;-66
2023/11/16 06:01:13;;;;;;;5.07;1.63;;;;;;;9.48;88.67;100180.72;10203438;28;20173;-66
2023/11/16 06:06:15;;;;;;;3.88;1.30;;;;;;;9.40;89.34;100180.47;10198221;28;20044;-66
2023/11/16 06:11:16;;;;;;;2.47;1.27;;;;;;;9.41;89.49;100178.66;10202641;28;20051;-67
2023/11/16 06:16:18;;;;;;;3.92;1.67;;;;;;;9.43;89.43;100177.59;10200496;28;20143;-65
2023/11/16 06:21:20;;;;;;;3.08;1.15;;;;;;;9.44;89.10;100173.09;10206740;28;20047;-67
2023/11/16 06:26:22;;;;;;;4.32;2.40;;;;;;;9.34;89.33;100184.44;10203060;28;20051;-67
2023/11/16 06:31:24;;;;;;;5.03;1.90;;;;;;;9.31;89.63;100167.91;10199327;28;20082;-67
2023/11/16 06:36:26;;;;;;;4.70;2.00;;;;;;;9.30;89.84;100166.22;10199350;28;20051;-65
2023/11/16 06:41:28;;;;;;;3.97;2.05;;;;;;;9.30;89.99;100171.53;10202639;28;20111;-66
2023/11/16 06:46:29;;;;;;;4.60;1.80;;;;;;;9.33;90.11;100180.09;10209601;28;20055;-68
2023/11/16 06:51:31;;;;;;;4.78;2.25;;;;;;;9.36;90.58;100173.69;10202772;28;20065;-66
2023/11/16 06:56:34;;;;;;;4.35;1.90;;;;;;;9.42;89.66;100165.25;10208125;28;20091;-67
2023/11/16 07:01:35;;;;;;;3.63;1.67;;;;;;;9.44;89.57;100158.00;10207165;28;20059;-67
2023/11/16 07:06:37;;;;;;;6.53;1.55;;;;;;;9.35;89.55;100167.56;10207819;28;20099;-67
2023/11/16 07:11:39;;;;;;;4.25;1.45;;;;;;;9.41;90.09;100160.91;10205344;28;20078;-67
2023/11/16 07:16:42;;;;;;;6.28;2.17;;;;;;;9.40;89.20;100161.88;10205983;28;20249;-67
2023/11/16 07:21:44;;;;;;;4.43;1.75;;;;;;;9.39;88.76;100154.88;10203210;28;20051;-64
2023/11/16 07:26:47;;;;;;;2.88;1.35;;;;;;;9.48;89.06;100148.84;10203598;28;20052;-66
2023/11/16 07:31:49;;;;;;;3.72;1.58;;;;;;;9.54;89.31;100123.59;10213366;28;20536;-65
2023/11/16 07:36:51;;;;;;;3.65;1.30;;;;;;;9.66;89.73;100113.81;10203306;28;20071;-65
2023/11/16 07:41:54;;;;;;;4.25;1.48;;;;;;;9.71;89.02;100117.81;10204032;28;20070;-65
2023/11/16 07:46:55;;;;;;;4.40;2.40;;;;;;;9.70;89.35;100107.31;10203637;28;20558;-65
2023/11/16 07:51:58;;;;;;;3.75;1.90;;;;;;;9.76;89.68;100109.47;10210513;28;20622;-67
2023/11/16 07:57:02;;;;;;;7.25;2.08;;;;;;;9.74;90.34;100098.09;10205698;28;20059;-66
2023/11/16 08:02:04;;;;;;;5.20;2.10;;;;;;;9.71;90.18;100107.19;10201583;28;20071;-66
2023/11/16 08:07:07;;;;;;;5.28;2.65;;;;;;;9.71;91.06;100104.53;10204466;28;20047;-66
2023/11/16 08:12:10;;;;;;;6.13;2.78;;;;;;;9.78;91.15;100091.59;10195286;28;20055;-66
2023/11/16 08:17:16;;;;;;;6.93;3.35;;;;;;;9.92;90.73;100085.16;10221487;28;20054;-66
2023/11/16 08:22:19;;;;;;;6.47;3.60;;;;;;;9.90;90.11;100090.59;10206118;28;20051;-66
2023/11/16 08:27:21;;;;;;;5.53;3.20;;;;;;;9.86;90.84;100089.16;10201399;28;20062;-67
2023/11/16 08:32:23;;;;;;;5.32;3.30;;;;;;;10.01;90.72;100083.56;10203393;28;20051;-68
2023/11/16 08:37:25;;;;;;;5.82;3.38;;;;;;;10.05;89.98;100071.72;10204840;28;20047;-67
2023/11/16 08:42:26;;;;;;;4.93;3.22;;;;;;;10.07;90.52;100067.13;10205967;28;20046;-68
2023/11/16 08:47:29;;;;;;;6.05;3.30;;;;;;;10.18;90.01;100063.59;10202138;28;20070;-67
2023/11/16 08:52:33;;;;;;;5.25;3.08;;;;;;;10.17;89.73;100057.41;10201633;28;20056;-68
2023/11/16 08:57:34;;;;;;;5.77;3.27;;;;;;;10.21;89.66;100045.56;10203382;28;20054;-68
2023/11/16 09:02:37;;;;;;;7.18;3.45;;;;;;;10.25;89.13;100031.03;10202002;28;20549;-69
2023/11/16 09:07:38;;;;;;;6.10;3.20;;;;;;;10.24;88.95;100040.00;10206236;28;20047;-67
2023/11/16 09:12:45;;;;;;;7.00;3.83;;;;;;;10.15;89.21;100019.47;10210315;28;20041;-67
2023/11/16 09:17:49;;;;;;;7.80;4.10;;;;;;;10.19;89.49;100020.06;10208035;28;20054;-65
2023/11/16 09:22:53;;;;;;;5.45;3.70;;;;;;;10.24;89.83;100018.72;10240402;28;20069;-68
2023/11/16 09:27:58;;;;;;;7.35;4.03;;;;;;;10.25;89.15;100015.09;10207727;28;20063;-67
2023/11/16 09:33:03;;;;;;;8.45;3.40;;;;;;;10.31;88.64;100000.41;10206236;28;20576;-68
2023/11/16 09:38:08;;;;;;;6.03;3.37;;;;;;;10.33;88.90;100021.56;10211753;28;20441;-68
2023/11/16 09:43:24;;;;;;;7.90;3.40;;;;;;;10.27;89.13;100023.78;10203211;28;20054;-67
2023/11/16 09:48:29;;;;;;;7.45;3.15;;;;;;;10.23;89.90;100001.03;10204791;28;20066;-68
2023/11/16 09:53:31;;;;;;;5.05;3.00;;;;;;;10.19;90.04;99983.69;10208870;28;20047;-67
2023/11/16 09:58:38;;;;;;;6.25;2.90;;;;;;;10.31;90.31;99976.47;10206643;28;20171;-69
2023/11/16 10:03:40;;;;;;;6.10;3.08;;;;;;;10.35;89.62;99953.16;10203431;28;20139;-68
2023/11/16 10:08:46;;;;;;;4.95;2.63;;;;;;;10.46;89.38;99945.09;10208944;28;20065;-68
2023/11/16 10:13:56;;;;;;;6.63;3.33;;;;;;;10.56;88.65;99937.19;10204191;28;20268;-70
2023/11/16 10:19:05;;;;;;;6.28;3.05;;;;;;;10.58;88.85;99924.56;10214453;28;20119;-67
2023/11/16 10:24:09;;;;;;;4.05;2.80;;;;;;;10.65;89.08;99911.59;10211777;28;20288;-69
2023/11/16 10:29:11;;;;;;;11.33;3.83;;;;;;;10.69;88.47;99905.00;10212173;28;20596;-66
2023/11/16 10:34:15;;;;;;;7.38;3.47;;;;;;;10.71;88.53;99879.94;10216059;28;20066;-68
2023/11/16 10:39:17;;;;;;;;;;;;;;;10.77;88.68;99865.28;10208286;28;20078;-66
2023/11/16 10:44:23;;;;;;;6.53;3.72;;;;;;;10.77;88.09;99844.81;10210501;28;19923;-69
2023/11/16 10:49:26;;;;;;;5.05;3.05;;;;;;;10.77;87.80;99834.16;10223961;28;20047;-65
2023/11/16 10:54:32;;;;;;;8.32;3.05;;;;;;;10.74;88.09;99817.63;10209541;28;20449;-67
2023/11/16 10:59:35;;;;;;;6.95;3.33;;;;;;;10.71;88.29;99799.25;10207952;28;20051;-67
2023/11/16 11:04:36;;;;;;;6.80;3.50;;;;;;;10.73;87.55;99784.84;10209365;28;20580;-67
2023/11/16 11:09:42;;;;;;;6.40;3.78;;;;;;;10.74;87.10;99772.38;10205364;28;20051;-68
2023/11/16 11:14:46;;;;;;;6.45;3.05;;;;;;;10.78;87.58;99766.63;10208770;28;20063;-68
2023/11/16 11:19:58;;;;;;;7.33;4.07;;;;;;;10.82;85.42;99761.84;10200501;28;20106;-66
2023/11/16 11:25:01;;;;;;;7.40;3.30;;;;;;;10.77;85.99;99758.78;10218106;28;20059;-66
2023/11/16 11:30:11;;;;;;;4.85;3.28;;;;;;;10.83;86.38;99754.72;10203460;28;20062;-68
2023/11/16 11:35:13;;;;;;;6.97;3.10;;;;;;;10.92;86.57;99751.25;10216921;28;20043;-68
2023/11/16 11:40:23;;;;;;;10.32;3.70;;;;;;;10.97;86.61;99743.66;10208124;28;20106;-67
2023/11/16 11:45:28;;;;;;;7.22;3.83;;;;;;;11.00;86.35;99742.56;10208852;28;20066;-68
2023/11/16 11:50:34;;;;;;;5.72;3.80;;;;;;;11.05;85.20;99750.97;10210519;28;20524;-69
2023/11/16 11:55:36;;;;;;;6.05;3.80;;;;;;;11.06;85.37;99742.00;10211891;28;20444;-70
2023/11/16 12:00:51;;;;;;;7.95;4.35;;;;;;;11.07;84.72;99738.38;10209487;28;20166;-70
2023/11/16 12:06:00;;;;;;;7.55;3.63;;;;;;;11.04;84.24;99733.31;10210459;28;20053;-70
2023/11/16 12:11:03;;;;;;;7.20;4.50;;;;;;;11.07;84.55;99727.72;10208982;28;20055;-69
2023/11/16 12:16:12;;;;;;;9.32;4.20;;;;;;;11.11;84.48;99723.78;10204615;28;20047;-69
2023/11/16 12:21:15;;;;;;;5.30;3.40;;;;;;;11.13;84.88;99727.97;10216107;28;20526;-68
2023/11/16 12:26:18;;;;;;;7.13;3.95;;;;;;;11.16;84.52;99734.03;10199805;28;20107;-68
2023/11/16 12:31:21;;;;;;;7.88;4.05;;;;;;;11.03;84.14;99721.81;10194785;28;20720;-69
2023/11/16 12:36:25;;;;;;;7.70;4.15;;;;;;;10.97;84.92;99706.38;10205822;28;20063;-70
2023/11/16 12:41:26;;;;;;;6.90;4.50;;;;;;;10.98;84.87;99696.59;10202805;28;20858;-70
2023/11/16 12:46:28;;;;;;;9.65;5.03;;;;;;;10.85;84.40;99683.53;10204859;28;20047;-70
2023/11/16 12:51:30;;;;;;;8.88;4.55;;;;;;;10.85;84.96;99676.38;10205300;28;20121;-70
2023/11/16 12:56:32;;;;;;;7.82;4.72;;;;;;;10.84;85.63;99661.41;10202361;28;20644;-71
2023/11/16 13:01:34;;;;;;;8.40;4.97;;;;;;;10.82;86.22;99650.03;10209813;28;20611;-69
2023/11/16 13:06:37;;;;;;;6.13;4.10;;;;;;;10.86;86.67;99629.31;10204470;28;20067;-70
2023/11/16 13:11:39;;;;;;;10.10;4.72;;;;;;;10.89;88.55;99613.88;10221054;28;20106;-70
2023/11/16 13:16:41;;;;;;;8.98;4.10;;;;;;;10.90;90.07;99604.06;10206001;28;20138;-69
2023/11/16 13:21:43;;;;;;;8.40;4.85;;;;;;;10.88;88.75;99588.22;10208097;28;20055;-69
2023/11/16 13:26:44;;;;;;;5.32;4.68;;;;;;;10.89;90.14;99578.44;10210979;28;20122;-70
2023/11/16 13:31:46;;;;;;;8.40;4.50;;;;;;;10.90;90.55;99580.97;10215248;28;20501;-70
2023/11/16 13:36:47;;;;;;;10.85;5.32;;;;;;;10.82;90.40;99562.19;10223812;23;20480;-70
2023/11/16 13:41:49;;;;;;;13.45;8.25;;;;;;;10.83;91.63;99545.22;10225767;28;20628;-72
2023/11/16 13:46:51;;;;;;;11.30;7.80;;;;;;;10.78;92.82;99527.03;10177419;28;20070;-71
2023/11/16 13:51:53;;;;;;;6.43;4.13;;;;;;;10.79;93.94;99507.41;10214725;28;20047;-70
2023/11/16 13:56:55;;;;;;;10.88;5.28;;;;;;;10.78;94.78;99503.06;10191380;28;20051;-73
2023/11/16 14:01:57;;;;;;;10.25;3.83;;;;;;;10.79;95.11;99501.25;10194340;28;20621;-72
2023/11/16 14:06:59;;;;;;;6.57;4.45;;;;;;;10.78;95.18;99496.91;10213721;28;20067;-71
2023/11/16 14:12:01;;;;;;;10.40;4.53;;;;;;;10.77;95.39;99488.06;10204663;28;20051;-71
2023/11/16 14:17:03;;;;;;;6.15;4.35;;;;;;;10.73;95.50;99464.53;10195968;28;20490;-71
2023/11/16 14:22:06;;;;;;;6.13;3.03;;;;;;;10.69;95.04;99485.31;10211268;28;20071;-71
2023/11/16 14:27:11;;;;;;;10.10;4.28;;;;;;;10.58;95.99;99472.13;10216089;28;20055;-70
2023/11/16 14:32:12;;;;;;;6.75;4.85;;;;;;;10.57;96.63;99471.31;10212582;28;20123;-72
2023/11/16 14:37:13;;;;;;;6.93;4.22;;;;;;;10.56;96.93;99472.28;10203264;28;20090;-72
2023/11/16 14:42:15;;;;;;;6.32;4.18;;;;;;;10.63;96.42;99466.38;10196017;28;20059;-71
2023/11/16 14:47:18;;;;;;;5.13;3.58;;;;;;;10.64;96.11;99466.25;10204829;28;20122;-72
2023/11/16 14:52:36;;;;;;;8.52;4.07;;;;;;;10.66;95.82;99464.28;10210316;28;20130;-70
2023/11/16 14:57:42;;;;;;;8.27;4.45;;;;;;;10.61;96.24;99462.06;10209831;28;20055;-69
2023/11/16 15:02:44;;;;;;;6.53;3.75;;;;;;;10.61;95.83;99463.88;10195083;28;20047;-70
2023/11/16 15:07:45;;;;;;;7.45;4.95;;;;;;;10.55;96.11;99467.09;10211827;28;20054;-69
2023/11/16 15:12:50;;;;;;;6.35;4.55;;;;;;;10.59;96.91;99458.69;10212979;28;21311;-72
2023/11/16 15:17:54;;;;;;;8.52;5.45;;;;;;;10.61;96.69;99455.88;10209871;28;20100;-70
2023/11/16 15:22:56;;;;;;;10.18;5.82;;;;;;;10.54;96.76;99450.31;10212462;28;20676;-74
2023/11/16 15:27:58;;;;;;;9.75;5.35;;;;;;;10.46;97.38;99436.88;10196950;28;20070;-72
2023/11/16 15:33:00;;;;;;;10.45;6.00;;;;;;;10.48;97.62;99434.91;10196680;28;20039;-73
2023/11/16 15:38:03;;;;;;;8.45;6.00;;;;;;;10.42;97.72;99443.47;10178479;28;20055;-71
2023/11/16 15:43:05;;;;;;;6.95;5.20;;;;;;;10.43;97.95;99442.47;10191242;28;20166;-73
2023/11/16 15:48:08;;;;;;;16.08;9.32;;;;;;;10.44;97.26;99439.66;10191735;28;20361;-72
2023/11/16 15:53:13;;;;;;;10.57;5.82;;;;;;;10.42;96.51;99430.19;10168270;28;20059;-71
2023/11/16 15:58:14;;;;;;;11.00;5.22;;;;;;;10.35;96.85;99415.75;10191906;28;20059;-72
2023/11/16 16:03:16;;;;;;;9.25;4.72;;;;;;;10.42;96.52;99430.19;10206437;28;20058;-72
2023/11/16 16:08:18;;;;;;;7.70;4.55;;;;;;;10.46;95.49;99428.88;10195941;28;20058;-72
2023/11/16 16:13:20;;;;;;;5.35;4.05;;;;;;;10.47;95.18;99433.22;10192461;28;20518;-70
2023/11/16 16:18:22;;;;;;;8.15;5.15;;;;;;;10.39;95.14;99425.13;10209428;28;20059;-71
2023/11/16 16:23:23;;;;;;;8.73;5.30;;;;;;;10.38;95.72;99423.44;10187884;28;20115;-72
2023/11/16 16:28:25;;;;;;;11.90;6.70;;;;;;;10.38;96.37;99428.78;10212617;28;20131;-72
2023/11/16 16:33:27;;;;;;;5.97;4.68;;;;;;;10.43;96.35;99423.84;10206299;28;20391;-71
2023/11/16 16:38:28;;;;;;;6.55;4.20;;;;;;;10.39;95.88;99412.66;10210679;28;20127;-71
2023/11/16 16:43:30;;;;;;;5.82;4.18;;;;;;;10.39;94.41;99415.31;10209363;28;20063;-70
2023/11/16 16:48:31;;;;;;;4.15;2.90;;;;;;;10.34;93.36;99411.41;10200230;28;20113;-70
2023/11/16 16:53:33;;;;;;;5.70;3.75;;;;;;;10.26;92.96;99396.97;10207234;28;20141;-70
2023/11/16 16:58:34;;;;;;;5.80;3.58;;;;;;;10.30;93.65;99407.31;10207719;28;20133;-71
2023/11/16 17:03:39;;;;;;;10.40;4.03;;;;;;;10.25;93.90;99408.59;10207079;28;20090;-72
2023/11/16 17:08:41;;;;;;;5.97;3.20;;;;;;;10.23;93.64;99405.22;10204915;28;20047;-75
2023/11/16 17:13:44;;;;;;;6.63;3.30;;;;;;;10.23;94.50;99413.22;10188326;28;20058;-73
2023/11/16 17:18:46;;;;;;;6.22;4.43;;;;;;;10.23;94.37;99415.03;10186584;28;20074;-73
2023/11/16 17:23:53;;;;;;;8.10;4.28;;;;;;;10.23;95.12;99415.88;10188529;28;20048;-72
2023/11/16 17:28:57;;;;;;;5.60;3.92;;;;;;;10.27;94.17;99416.44;10191653;28;20466;-73
2023/11/16 17:33:59;;;;;;;4.63;3.80;;;;;;;10.18;93.80;99411.97;10192752;28;20081;-73
2023/11/16 17:39:00;;;;;;;6.90;4.03;;;;;;;10.22;95.17;99408.03;10205192;28;20055;-72
2023/11/16 17:44:02;;;;;;;5.20;4.57;;;;;;;10.28;94.60;99412.78;10186434;28;20290;-72
2023/11/16 17:49:05;;;;;;;6.05;4.78;;;;;;;10.26;94.45;99404.94;10202633;28;20061;-73
2023/11/16 17:54:07;;;;;;;8.65;5.60;;;;;;;10.30;94.50;99402.00;10205223;28;20059;-74
2023/11/16 17:59:10;;;;;;;9.60;4.80;;;;;;;10.32;94.55;99408.03;10193467;28;20047;-72
2023/11/16 18:04:14;;;;;;;9.20;5.35;;;;;;;10.34;94.50;99400.78;10181544;28;20061;-72
2023/11/16 18:09:19;;;;;;;6.95;5.75;;;;;;;10.34;94.30;99392.78;10183492;28;20081;-72
2023/11/16 18:14:20;;;;;;;6.72;5.30;;;;;;;10.34;94.69;99396.28;10192317;28;20723;-72
2023/11/16 18:19:22;;;;;;;5.60;4.95;;;;;;;10.30;94.08;99399.34;10205548;28;20198;-72
2023/11/16 18:24:24;;;;;;;8.77;5.43;;;;;;;10.16;94.56;99382.84;10204445;28;20119;-73
2023/11/16 18:29:26;;;;;;;8.80;6.63;;;;;;;10.17;94.36;99392.50;10194478;28;20063;-73
2023/11/16 18:34:40;;;;;;;7.13;6.00;;;;;;;10.21;94.27;99393.91;10188988;28;20165;-73
2023/11/16 18:39:43;;;;;;;6.63;5.35;;;;;;;10.23;94.52;99402.56;10212737;28;20517;-74
2023/11/16 18:44:44;;;;;;;7.85;5.28;;;;;;;10.14;94.14;99390.13;10200090;28;20397;-73
2023/11/16 18:49:46;;;;;;;6.28;4.65;;;;;;;10.24;93.80;99390.97;10211008;28;20130;-73
2023/11/16 18:54:47;;;;;;;6.72;4.25;;;;;;;10.18;94.12;99372.09;10204412;28;20141;-71
2023/11/16 18:59:49;;;;;;;7.00;3.63;;;;;;;10.29;93.43;99376.41;10192996;28;20059;-72
2023/11/16 19:04:51;;;;;;;5.10;3.08;;;;;;;10.24;92.16;99372.34;10211617;28;20051;-73
2023/11/16 19:09:54;;;;;;;4.90;3.13;;;;;;;10.23;92.71;99370.66;10212180;28;20051;-73
2023/11/16 19:14:57;;;;;;;5.85;3.10;;;;;;;10.18;91.58;99377.41;10200947;28;20459;-73
2023/11/16 19:20:00;;;;;;;4.25;2.72;;;;;;;10.14;91.21;99382.16;10199677;28;20142;-72
2023/11/16 19:25:02;;;;;;;5.38;4.15;;;;;;;10.11;91.37;99378.94;10210930;28;20657;-73
2023/11/16 19:30:07;;;;;;;;;;;;;;;10.08;92.48;99385.38;10188482;28;20051;-73
2023/11/16 19:35:08;;;;;;;9.20;6.38;;;;;;;10.08;92.93;99380.88;10210218;28;20013;-73
2023/11/16 19:40:11;;;;;;;8.18;5.65;;;;;;;10.07;92.78;99383.69;10212836;28;20051;-72
2023/11/16 19:45:23;;;;;;;5.53;4.93;;;;;;;10.09;93.61;99376.44;10193936;28;20122;-71
2023/11/16 19:50:25;;;;;;;7.07;5.38;;;;;;;10.03;92.57;99371.69;10211190;28;20062;-71
2023/11/16 19:55:26;;;;;;;10.18;9.07;;;;;;;10.03;92.46;99380.47;10212697;28;20174;-73
2023/11/16 20:00:27;;;;;;;6.00;5.45;;;;;;;10.03;92.30;99371.69;10201095;28;20146;-72
2023/11/16 20:05:29;;;;;;;7.57;4.85;;;;;;;9.98;92.31;99357.97;10193849;28;20488;-70
2023/11/16 20:10:36;;;;;;;7.78;3.70;;;;;;;10.02;92.95;99364.69;10200702;28;20074;-70
2023/11/16 20:15:40;;;;;;;8.32;5.40;;;;;;;10.05;92.76;99353.75;10209885;28;20054;-70
2023/11/16 20:20:42;;;;;;;6.30;4.82;;;;;;;10.03;92.11;99345.09;10197690;28;21090;-70
2023/11/16 20:25:55;;;;;;;7.13;5.18;;;;;;;9.97;91.76;99345.63;10197479;28;20153;-71
2023/11/16 20:30:57;;;;;;;7.22;4.18;;;;;;;9.93;91.64;99339.78;10211234;28;20390;-69
2023/11/16 20:35:59;;;;;;;6.78;4.22;;;;;;;9.85;91.15;99363.59;10198332;28;20126;-69
2023/11/16 20:41:00;;;;;;;6.05;3.72;;;;;;;9.79;92.21;99367.63;10201883;28;20047;-69
2023/11/16 20:46:03;;;;;;;5.28;4.22;;;;;;;9.85;92.04;99371.56;10207497;28;20053;-71
2023/11/16 20:51:07;;;;;;;7.15;4.20;;;;;;;9.91;91.47;99385.09;10195097;28;20165;-71
2023/11/16 20:56:09;;;;;;;6.38;5.00;;;;;;;9.86;91.29;99390.03;10181517;28;20051;-70
2023/11/16 21:01:13;;;;;;;7.65;4.90;;;;;;;9.86;91.25;99390.03;10206342;28;20058;-71
2023/11/16 21:06:15;;;;;;;10.75;5.88;;;;;;;9.77;91.30;99393.50;10207375;28;20142;-71
2023/11/16 21:11:16;;;;;;;7.28;5.93;;;;;;;9.63;92.41;99388.59;10208131;28;20047;-71
2023/11/16 21:16:18;;;;;;;7.45;4.63;;;;;;;9.57;92.41;99405.09;10195882;28;20206;-70
2023/11/16 21:21:19;;;;;;;9.77;5.00;;;;;;;9.66;92.06;99417.56;10205498;28;20059;-71
2023/11/16 21:26:21;;;;;;;8.63;4.88;;;;;;;9.69;91.31;99431.38;10201427;28;20055;-71
2023/11/16 21:31:22;;;;;;;5.53;4.22;;;;;;;9.68;91.03;99434.19;10208141;28;20047;-71
2023/11/16 21:36:25;;;;;;;7.00;5.53;;;;;;;9.64;91.49;99440.78;10191476;28;20137;-70
2023/11/16 21:41:26;;;;;;;12.30;5.10;;;;;;;9.41;91.37;99430.34;10188492;28;20670;-72
2023/11/16 21:46:28;;;;;;;8.30;4.85;;;;;;;9.38;91.71;99441.25;10204557;28;20071;-67
2023/11/16 21:51:31;;;;;;;8.65;4.55;;;;;;;9.30;91.21;99443.75;10204641;28;20126;-67
2023/11/16 21:56:33;;;;;;;5.38;4.85;;;;;;;9.32;90.29;99458.59;10204202;28;20110;-67
2023/11/16 22:01:34;;;;;;;10.02;4.90;;;;;;;9.05;91.71;99461.81;10205794;28;20050;-68
2023/11/16 22:06:37;;;;;;;5.80;4.43;;;;;;;9.20;92.52;99486.22;10189184;28;20056;-67
2023/11/16 22:11:39;;;;;;;7.75;4.57;;;;;;;9.02;91.70;99483.31;10211597;28;20583;-67
2023/11/16 22:16:41;;;;;;;9.07;4.30;;;;;;;9.20;91.43;99503.00;10196122;28;20051;-67
2023/11/16 22:21:42;;;;;;;7.53;4.15;;;;;;;9.10;91.11;99502.09;10207572;28;20062;-68
2023/11/16 22:26:44;;;;;;;6.55;4.43;;;;;;;9.00;92.25;99527.75;10208273;28;20059;-67
2023/11/16 22:31:46;;;;;;;5.82;3.75;;;;;;;9.03;91.50;99532.81;10181427;28;20051;-67
2023/11/16 22:36:49;;;;;;;6.80;4.22;;;;;;;9.00;91.30;99546.34;10212885;28;20486;-66
2023/11/16 22:41:50;;;;;;;7.70;4.05;;;;;;;9.01;91.31;99556.00;10196573;28;20063;-69
2023/11/16 22:46:52;;;;;;;8.27;4.32;;;;;;;8.79;92.60;99573.72;10215939;28;20055;-68
2023/11/16 22:51:54;;;;;;;9.13;5.28;;;;;;;8.65;92.80;99590.81;10191938;28;20052;-67
2023/11/16 22:56:55;;;;;;;6.45;4.75;;;;;;;8.88;92.20;99611.91;10213459;28;20094;-68
2023/11/16 23:02:00;;;;;;;8.05;5.15;;;;;;;8.96;92.26;99624.53;10188549;28;20568;-68
2023/11/16 23:07:09;;;;;;;8.13;5.13;;;;;;;9.05;91.56;99639.69;10197895;28;20099;-66
2023/11/16 23:12:10;;;;;;;10.23;6.40;;;;;;;9.14;90.89;99657.53;10210078;28;20055;-68
2023/11/16 23:17:15;;;;;;;12.45;8.25;;;;;;;9.17;90.92;99688.28;10182605;28;20100;-67
2023/11/16 23:22:17;;;;;;;10.05;5.85;;;;;;;9.24;91.41;99699.25;10207967;28;20084;-66
2023/11/16 23:27:22;;;;;;;6.97;6.25;;;;;;;9.20;90.79;99703.94;10192256;28;20559;-69